Webcam Richtung Westen

Webcam27

Webcam Richtung Norden

Webcam36

Webcam Richtung Osten

Webcam09

Wetter(Würzburg):
110100Z AUTO 17003G03KT 52KM OVC070 11/06 Q1010
		
Sun 11.04.2021, 01:00 UTC

Sichtweite bis zu 52 km
Wind aus 170° mit 03kt, in Böen bis zu 03kt
bedeckter Himmel (8 Achtel) bei 7000 Fuß
Temperatur: 11 °C
Taupunkt: 6 °C
QNH: 1010 hPa
                         Heute        Morgen
                         11.04        12.04
--------------------------------------------
Beginn der Dämmerung     04:03        04:00
Sonnenaufgang            04:36        04:34
Sonnenuntergang          18:06        18:08
Ende der Dämmerung       18:40        18:42

Alle Zeiten in UTC